Time,TemperatureF,DewpointF,PressureIn,WindDirection,WindDirectionDegrees,WindSpeedMPH,WindSpeedGustMPH,Humidity,HourlyPrecipIn,Conditions,Clouds,dailyrainin,SolarRadiationWatts/m^2,SoftwareType,DateUTC
2013-12-14 00:00:00,30.4,16.1,30.34,East,83,2.0,2.0,55,0.00,,,0.00,0,Wunderground v.1.15,2013-12-14 07:00:00,
2013-12-14 00:06:00,30.1,15.9,30.34,ESE,109,1.0,2.0,55,0.00,,,0.00,0,Wunderground v.1.15,2013-12-14 07:06:00,
2013-12-14 00:12:00,30.1,15.4,30.34,SE,144,1.0,4.0,54,0.00,,,0.00,0,Wunderground v.1.15,2013-12-14 07:12:00,
2013-12-14 00:17:00,30.0,15.3,30.34,NE,55,1.0,4.0,54,0.00,,,0.00,0,Wunderground v.1.15,2013-12-14 07:17:00,
2013-12-14 00:22:00,30.0,15.3,30.34,ENE,64,1.0,2.0,54,0.00,,,0.00,0,Wunderground v.1.15,2013-12-14 07:22:00,
2013-12-14 00:27:00,29.9,15.3,30.34,NNE,25,1.0,3.0,54,0.00,,,0.00,0,Wunderground v.1.15,2013-12-14 07:27:00,
2013-12-14 00:32:00,29.8,15.2,30.34,NNE,24,2.0,3.0,54,0.00,,,0.00,0,Wunderground v.1.15,2013-12-14 07:32:00,
2013-12-14 00:37:00,30.0,14.9,30.34,NE,54,2.0,4.0,53,0.00,,,0.00,0,Wunderground v.1.15,2013-12-14 07:37:00,
2013-12-14 00:42:00,30.3,15.2,30.34,NNE,32,3.0,3.0,53,0.00,,,0.00,0,Wunderground v.1.15,2013-12-14 07:42:00,
2013-12-14 00:47:00,30.3,14.8,30.33,NNE,30,2.0,3.0,52,0.00,,,0.00,0,Wunderground v.1.15,2013-12-14 07:47:00,
2013-12-14 00:53:00,30.2,14.7,30.34,North,350,2.0,3.0,52,0.00,,,0.00,0,Wunderground v.1.15,2013-12-14 07:53:00,
2013-12-14 00:58:00,29.8,14.7,30.34,NNW,340,2.0,4.0,53,0.00,,,0.00,0,Wunderground v.1.15,2013-12-14 07:58:00,
2013-12-14 01:03:00,29.9,14.8,30.34,NNE,12,3.0,3.0,53,0.00,,,0.00,0,Wunderground v.1.15,2013-12-14 08:03:00,
2013-12-14 01:09:00,30.5,14.9,30.34,NNW,333,3.0,8.0,52,0.00,,,0.00,0,Wunderground v.1.15,2013-12-14 08:09:00,
2013-12-14 01:14:00,30.8,14.8,30.34,NNW,329,5.0,8.0,51,0.00,,,0.00,0,Wunderground v.1.15,2013-12-14 08:14:00,
2013-12-14 01:19:00,31.2,15.2,30.34,North,355,7.0,10.0,51,0.00,,,0.00,0,Wunderground v.1.15,2013-12-14 08:19:00,
2013-12-14 01:25:00,30.7,15.1,30.34,NNW,330,7.0,8.0,52,0.00,,,0.00,0,Wunderground v.1.15,2013-12-14 08:25:00,
2013-12-14 01:30:00,30.0,14.9,30.34,NNW,346,7.0,10.0,53,0.00,,,0.00,0,Wunderground v.1.15,2013-12-14 08:30:00,
2013-12-14 01:36:00,30.1,15.0,30.34,North,355,8.0,10.0,53,0.00,,,0.00,0,Wunderground v.1.15,2013-12-14 08:36:00,
2013-12-14 01:41:00,29.9,14.8,30.34,NNW,344,8.0,8.0,53,0.00,,,0.00,0,Wunderground v.1.15,2013-12-14 08:41:00,
2013-12-14 01:46:00,29.7,15.1,30.35,NNW,342,7.0,8.0,54,0.00,,,0.00,0,Wunderground v.1.15,2013-12-14 08:46:00,
2013-12-14 01:52:00,29.7,15.1,30.35,North,360,7.0,7.0,54,0.00,,,0.00,0,Wunderground v.1.15,2013-12-14 08:52:00,
2013-12-14 01:57:00,29.5,14.9,30.35,NNE,24,6.0,7.0,54,0.00,,,0.00,0,Wunderground v.1.15,2013-12-14 08:57:00,
2013-12-14 02:02:00,29.6,15.0,30.36,NNE,13,5.0,9.0,54,0.00,,,0.00,0,Wunderground v.1.15,2013-12-14 09:02:00,
2013-12-14 02:07:00,29.7,15.1,30.36,NE,43,6.0,9.0,54,0.00,,,0.00,0,Wunderground v.1.15,2013-12-14 09:07:00,
2013-12-14 02:13:00,30.0,15.3,30.35,NNW,344,7.0,9.0,54,0.00,,,0.00,0,Wunderground v.1.15,2013-12-14 09:13:00,
2013-12-14 02:18:00,30.0,15.3,30.35,NNW,333,7.0,10.0,54,0.00,,,0.00,0,Wunderground v.1.15,2013-12-14 09:18:00,
2013-12-14 02:24:00,29.9,15.3,30.35,NNW,340,7.0,9.0,54,0.00,,,0.00,0,Wunderground v.1.15,2013-12-14 09:24:00,
2013-12-14 02:30:00,29.8,15.6,30.36,NW,322,9.0,9.0,55,0.00,,,0.00,0,Wunderground v.1.15,2013-12-14 09:30:00,
2013-12-14 02:36:00,29.4,15.2,30.36,WNW,286,8.0,9.0,55,0.00,,,0.00,0,Wunderground v.1.15,2013-12-14 09:36:00,
2013-12-14 02:41:00,28.8,14.6,30.36,South,187,5.0,5.0,55,0.00,,,0.00,0,Wunderground v.1.15,2013-12-14 09:41:00,
2013-12-14 02:46:00,28.2,14.9,30.36,South,182,2.0,5.0,57,0.00,,,0.00,0,Wunderground v.1.15,2013-12-14 09:46:00,
2013-12-14 02:51:00,27.4,14.5,30.37,ESE,114,2.0,4.0,58,0.00,,,0.00,0,Wunderground v.1.15,2013-12-14 09:51:00,
2013-12-14 02:56:00,27.7,15.2,30.37,ESE,109,2.0,5.0,59,0.00,,,0.00,0,Wunderground v.1.15,2013-12-14 09:56:00,
2013-12-14 03:01:00,28.2,15.3,30.37,ESE,106,2.0,3.0,58,0.00,,,0.00,0,Wunderground v.1.15,2013-12-14 10:01:00,
2013-12-14 03:06:00,28.1,14.8,30.37,ESE,107,2.0,3.0,57,0.00,,,0.00,0,Wunderground v.1.15,2013-12-14 10:06:00,
2013-12-14 03:12:00,27.7,14.8,30.37,SE,143,2.0,4.0,58,0.00,,,0.00,0,Wunderground v.1.15,2013-12-14 10:12:00,
2013-12-14 03:17:00,27.6,14.7,30.37,SE,146,1.0,4.0,58,0.00,,,0.00,0,Wunderground v.1.15,2013-12-14 10:17:00,
2013-12-14 03:22:00,27.5,14.6,30.37,SE,146,1.0,2.0,58,0.00,,,0.00,0,Wunderground v.1.15,2013-12-14 10:22:00,
2013-12-14 03:27:00,27.5,15.0,30.37,North,11,1.0,4.0,59,0.00,,,0.00,0,Wunderground v.1.15,2013-12-14 10:27:00,
2013-12-14 03:32:00,27.6,14.7,30.37,NNE,12,1.0,2.0,58,0.00,,,0.00,0,Wunderground v.1.15,2013-12-14 10:32:00,
2013-12-14 03:38:00,27.2,14.4,30.38,East,80,2.0,2.0,58,0.00,,,0.00,0,Wunderground v.1.15,2013-12-14 10:38:00,
2013-12-14 03:43:00,26.8,14.4,30.37,East,80,1.0,2.0,59,0.00,,,0.00,0,Wunderground v.1.15,2013-12-14 10:43:00,
2013-12-14 03:48:00,26.5,14.1,30.36,NNW,338,1.0,4.0,59,0.00,,,0.00,0,Wunderground v.1.15,2013-12-14 10:48:00,
2013-12-14 03:54:00,26.2,14.6,30.36,NW,326,3.0,10.0,61,0.00,,,0.00,0,Wunderground v.1.15,2013-12-14 10:54:00,
2013-12-14 03:59:00,26.4,15.1,30.37,NNW,328,5.0,10.0,62,0.00,,,0.00,0,Wunderground v.1.15,2013-12-14 10:59:00,
2013-12-14 04:05:00,26.6,15.3,30.37,NNW,330,6.0,6.0,62,0.00,,,0.00,0,Wunderground v.1.15,2013-12-14 11:05:00,
2013-12-14 04:10:00,26.3,14.7,30.37,NNW,346,4.0,4.0,61,0.00,,,0.00,0,Wunderground v.1.15,2013-12-14 11:10:00,
2013-12-14 04:15:00,26.5,15.2,30.36,North,355,4.0,8.0,62,0.00,,,0.00,0,Wunderground v.1.15,2013-12-14 11:15:00,
2013-12-14 04:21:00,26.9,15.2,30.36,NNW,334,5.0,6.0,61,0.00,,,0.00,0,Wunderground v.1.15,2013-12-14 11:21:00,
2013-12-14 04:26:00,27.0,14.9,30.36,NNW,342,5.0,8.0,60,0.00,,,0.00,0,Wunderground v.1.15,2013-12-14 11:26:00,
2013-12-14 04:31:00,26.7,14.7,30.37,NW,319,5.0,5.0,60,0.00,,,0.00,0,Wunderground v.1.15,2013-12-14 11:31:00,
2013-12-14 04:36:00,26.1,14.5,30.37,WNW,295,4.0,5.0,61,0.00,,,0.00,0,Wunderground v.1.15,2013-12-14 11:36:00,
2013-12-14 04:41:00,25.1,13.9,30.37,NW,305,4.0,4.0,62,0.00,,,0.00,0,Wunderground v.1.15,2013-12-14 11:41:00,
2013-12-14 04:46:00,24.5,14.1,30.36,NNW,327,4.0,5.0,64,0.00,,,0.00,0,Wunderground v.1.15,2013-12-14 11:46:00,
2013-12-14 04:51:00,24.2,14.1,30.37,NNW,336,4.0,6.0,65,0.00,,,0.00,0,Wunderground v.1.15,2013-12-14 11:51:00,
2013-12-14 04:56:00,24.6,14.5,30.37,NNW,328,4.0,6.0,65,0.00,,,0.00,0,Wunderground v.1.15,2013-12-14 11:56:00,
2013-12-14 05:01:00,24.9,14.8,30.37,NNW,328,4.0,4.0,65,0.00,,,0.00,0,Wunderground v.1.15,2013-12-14 12:01:00,
2013-12-14 05:07:00,24.8,14.7,30.37,NNW,327,3.0,5.0,65,0.00,,,0.00,0,Wunderground v.1.15,2013-12-14 12:07:00,
2013-12-14 05:12:00,24.7,14.6,30.37,NW,326,3.0,4.0,65,0.00,,,0.00,0,Wunderground v.1.15,2013-12-14 12:12:00,
2013-12-14 05:17:00,24.6,14.5,30.37,NW,324,4.0,6.0,65,0.00,,,0.00,0,Wunderground v.1.15,2013-12-14 12:17:00,
2013-12-14 05:22:00,24.5,14.4,30.38,NW,319,4.0,5.0,65,0.00,,,0.00,0,Wunderground v.1.15,2013-12-14 12:22:00,
2013-12-14 05:27:00,24.6,14.5,30.38,NW,306,4.0,5.0,65,0.00,,,0.00,0,Wunderground v.1.15,2013-12-14 12:27:00,
2013-12-14 05:32:00,24.4,14.3,30.39,NW,320,4.0,4.0,65,0.00,,,0.00,0,Wunderground v.1.15,2013-12-14 12:32:00,
2013-12-14 05:38:00,23.6,13.5,30.39,NW,323,4.0,4.0,65,0.00,,,0.00,0,Wunderground v.1.15,2013-12-14 12:38:00,
2013-12-14 05:43:00,23.4,14.0,30.39,NW,322,4.0,5.0,67,0.00,,,0.00,0,Wunderground v.1.15,2013-12-14 12:43:00,
2013-12-14 05:48:00,23.7,14.3,30.39,NW,321,5.0,6.0,67,0.00,,,0.00,0,Wunderground v.1.15,2013-12-14 12:48:00,
2013-12-14 05:54:00,23.9,14.2,30.39,NNW,336,5.0,5.0,66,0.00,,,0.00,0,Wunderground v.1.15,2013-12-14 12:54:00,
2013-12-14 06:00:00,24.0,14.3,30.39,NNW,336,5.0,6.0,66,0.00,,,0.00,0,Wunderground v.1.15,2013-12-14 13:00:00,
2013-12-14 06:05:00,24.3,14.6,30.39,NW,319,5.0,8.0,66,0.00,,,0.00,0,Wunderground v.1.15,2013-12-14 13:05:00,
2013-12-14 06:10:00,24.4,14.7,30.39,NNW,342,5.0,5.0,66,0.00,,,0.00,0,Wunderground v.1.15,2013-12-14 13:10:00,
2013-12-14 06:15:00,24.5,14.8,30.40,NW,317,4.0,5.0,66,0.00,,,0.00,0,Wunderground v.1.15,2013-12-14 13:15:00,
2013-12-14 06:21:00,24.6,14.5,30.41,NW,309,3.0,4.0,65,0.00,,,0.00,0,Wunderground v.1.15,2013-12-14 13:21:00,
2013-12-14 06:26:00,24.7,14.6,30.41,NW,325,3.0,5.0,65,0.00,,,0.00,0,Wunderground v.1.15,2013-12-14 13:26:00,
2013-12-14 06:31:00,24.7,14.6,30.41,NW,304,5.0,9.0,65,0.00,,,0.00,0,Wunderground v.1.15,2013-12-14 13:31:00,
2013-12-14 06:37:00,25.2,15.1,30.41,NW,314,6.0,9.0,65,0.00,,,0.00,0,Wunderground v.1.15,2013-12-14 13:37:00,
2013-12-14 06:42:00,25.4,14.9,30.41,NW,316,6.0,8.0,64,0.00,,,0.00,0,Wunderground v.1.15,2013-12-14 13:42:00,
2013-12-14 06:48:00,25.4,14.9,30.41,NW,325,5.0,8.0,64,0.00,,,0.00,0,Wunderground v.1.15,2013-12-14 13:48:00,
2013-12-14 06:54:00,25.1,14.6,30.41,NNW,331,4.0,5.0,64,0.00,,,0.00,0,Wunderground v.1.15,2013-12-14 13:54:00,
2013-12-14 06:59:00,24.8,14.3,30.42,NW,325,4.0,5.0,64,0.00,,,0.00,0,Wunderground v.1.15,2013-12-14 13:59:00,
2013-12-14 07:04:00,24.8,14.7,30.41,NW,325,4.0,8.0,65,0.00,,,0.00,0,Wunderground v.1.15,2013-12-14 14:04:00,
2013-12-14 07:10:00,25.1,15.3,30.41,NW,323,6.0,8.0,66,0.00,,,0.00,0,Wunderground v.1.15,2013-12-14 14:10:00,
2013-12-14 07:15:00,25.6,15.5,30.42,NW,319,7.0,9.0,65,0.00,,,0.00,0,Wunderground v.1.15,2013-12-14 14:15:00,
2013-12-14 07:21:00,25.6,15.5,30.42,NNW,327,7.0,9.0,65,0.00,,,0.00,0,Wunderground v.1.15,2013-12-14 14:21:00,
2013-12-14 07:26:00,25.7,15.2,30.42,NW,322,6.0,9.0,64,0.00,,,0.00,5,Wunderground v.1.15,2013-12-14 14:26:00,
2013-12-14 07:32:00,25.6,15.1,30.42,WNW,302,5.0,6.0,64,0.00,,,0.00,7,Wunderground v.1.15,2013-12-14 14:32:00,
2013-12-14 07:37:00,25.6,15.1,30.42,NW,319,5.0,7.0,64,0.00,,,0.00,9,Wunderground v.1.15,2013-12-14 14:37:00,
2013-12-14 07:42:00,25.6,15.1,30.43,NW,317,5.0,5.0,64,0.00,,,0.00,11,Wunderground v.1.15,2013-12-14 14:42:00,
2013-12-14 07:47:00,25.3,14.8,30.43,NW,321,6.0,9.0,64,0.00,,,0.00,12,Wunderground v.1.15,2013-12-14 14:47:00,
2013-12-14 07:52:00,25.5,15.4,30.43,NW,318,7.0,7.0,65,0.00,,,0.00,16,Wunderground v.1.15,2013-12-14 14:52:00,
2013-12-14 07:58:00,25.8,15.6,30.44,NW,313,7.0,10.0,65,0.00,,,0.00,25,Wunderground v.1.15,2013-12-14 14:58:00,
2013-12-14 08:03:00,26.3,15.8,30.44,WNW,302,8.0,10.0,64,0.00,,,0.00,37,Wunderground v.1.15,2013-12-14 15:03:00,
2013-12-14 08:09:00,27.0,16.1,30.44,NW,321,8.0,10.0,63,0.00,,,0.00,53,Wunderground v.1.15,2013-12-14 15:09:00,
2013-12-14 08:14:00,27.4,16.4,30.44,NW,315,7.0,9.0,63,0.00,,,0.00,67,Wunderground v.1.15,2013-12-14 15:14:00,
2013-12-14 08:19:00,27.9,16.2,30.44,NNW,330,7.0,9.0,61,0.00,,,0.00,81,Wunderground v.1.15,2013-12-14 15:19:00,
2013-12-14 08:24:00,28.4,16.7,30.44,NW,325,8.0,11.0,61,0.00,,,0.00,97,Wunderground v.1.15,2013-12-14 15:24:00,
2013-12-14 08:29:00,28.9,16.4,30.44,NW,325,10.0,12.0,59,0.00,,,0.00,114,Wunderground v.1.15,2013-12-14 15:29:00,
2013-12-14 08:35:00,29.4,16.8,30.44,NNW,331,10.0,11.0,59,0.00,,,0.00,130,Wunderground v.1.15,2013-12-14 15:35:00,
2013-12-14 08:40:00,29.7,16.7,30.44,NNW,338,11.0,11.0,58,0.00,,,0.00,148,Wunderground v.1.15,2013-12-14 15:40:00,
2013-12-14 08:45:00,30.0,16.6,30.44,NNW,345,11.0,14.0,57,0.00,,,0.00,165,Wunderground v.1.15,2013-12-14 15:45:00,
2013-12-14 08:51:00,30.3,16.5,30.44,North,350,11.0,11.0,56,0.00,,,0.00,186,Wunderground v.1.15,2013-12-14 15:51:00,
2013-12-14 08:56:00,30.6,16.7,30.44,NNW,338,10.0,12.0,56,0.00,,,0.00,204,Wunderground v.1.15,2013-12-14 15:56:00,
2013-12-14 09:01:00,30.9,16.6,30.44,NNE,13,10.0,11.0,55,0.00,,,0.00,220,Wunderground v.1.15,2013-12-14 16:01:00,
2013-12-14 09:06:00,31.1,16.4,30.44,NNW,339,10.0,14.0,54,0.00,,,0.00,237,Wunderground v.1.15,2013-12-14 16:06:00,
2013-12-14 09:12:00,31.5,16.7,30.45,NNW,344,10.0,13.0,54,0.00,,,0.00,257,Wunderground v.1.15,2013-12-14 16:12:00,
2013-12-14 09:17:00,31.5,16.3,30.45,NNW,336,11.0,16.0,53,0.00,,,0.00,271,Wunderground v.1.15,2013-12-14 16:17:00,
2013-12-14 09:23:00,31.8,16.6,30.45,NW,314,12.0,15.0,53,0.00,,,0.00,285,Wunderground v.1.15,2013-12-14 16:23:00,
2013-12-14 09:28:00,31.9,17.1,30.45,NNW,343,11.0,15.0,54,0.00,,,0.00,295,Wunderground v.1.15,2013-12-14 16:28:00,
2013-12-14 09:34:00,32.1,16.9,30.45,NW,325,10.0,12.0,53,0.00,,,0.00,309,Wunderground v.1.15,2013-12-14 16:34:00,
2013-12-14 09:39:00,32.3,16.6,30.45,NNE,20,10.0,14.0,52,0.00,,,0.00,323,Wunderground v.1.15,2013-12-14 16:39:00,
2013-12-14 09:44:00,32.6,16.9,30.45,NNW,342,8.0,13.0,52,0.00,,,0.00,332,Wunderground v.1.15,2013-12-14 16:44:00,
2013-12-14 09:49:00,32.7,17.0,30.46,North,11,8.0,14.0,52,0.00,,,0.00,345,Wunderground v.1.15,2013-12-14 16:49:00,
2013-12-14 09:54:00,32.9,16.7,30.46,NNW,348,9.0,13.0,51,0.00,,,0.00,355,Wunderground v.1.15,2013-12-14 16:54:00,
2013-12-14 10:00:00,33.2,17.0,30.47,NNW,342,8.0,8.0,51,0.00,,,0.00,367,Wunderground v.1.15,2013-12-14 17:00:00,
2013-12-14 10:06:00,33.5,17.3,30.47,North,355,7.0,13.0,51,0.00,,,0.00,380,Wunderground v.1.15,2013-12-14 17:06:00,
2013-12-14 10:11:00,33.6,16.9,30.48,North,351,7.0,7.0,50,0.00,,,0.00,390,Wunderground v.1.15,2013-12-14 17:11:00,
2013-12-14 10:16:00,33.7,17.5,30.48,NNW,345,8.0,12.0,51,0.00,,,0.00,401,Wunderground v.1.15,2013-12-14 17:16:00,
2013-12-14 10:21:00,34.1,17.4,30.48,ENE,69,7.0,8.0,50,0.00,,,0.00,410,Wunderground v.1.15,2013-12-14 17:21:00,
2013-12-14 10:26:00,34.4,17.2,30.48,NNW,336,5.0,9.0,49,0.00,,,0.00,417,Wunderground v.1.15,2013-12-14 17:26:00,
2013-12-14 10:31:00,34.4,17.7,30.48,NW,323,6.0,6.0,50,0.00,,,0.00,425,Wunderground v.1.15,2013-12-14 17:31:00,
2013-12-14 10:36:00,34.7,17.9,30.48,NNW,330,7.0,13.0,50,0.00,,,0.00,434,Wunderground v.1.15,2013-12-14 17:36:00,
2013-12-14 10:41:00,34.5,17.3,30.48,NNW,336,8.0,8.0,49,0.00,,,0.00,441,Wunderground v.1.15,2013-12-14 17:41:00,
2013-12-14 10:46:00,34.4,17.7,30.48,North,355,10.0,14.0,50,0.00,,,0.00,448,Wunderground v.1.15,2013-12-14 17:46:00,
2013-12-14 10:52:00,34.6,17.4,30.49,NNE,22,9.0,10.0,49,0.00,,,0.00,457,Wunderground v.1.15,2013-12-14 17:52:00,
2013-12-14 10:57:00,34.7,17.5,30.48,North,5,10.0,13.0,49,0.00,,,0.00,464,Wunderground v.1.15,2013-12-14 17:57:00,
2013-12-14 11:02:00,35.0,17.7,30.49,NNW,340,9.0,12.0,49,0.00,,,0.00,469,Wunderground v.1.15,2013-12-14 18:02:00,
2013-12-14 11:07:00,35.1,17.8,30.49,NNW,327,9.0,12.0,49,0.00,,,0.00,475,Wunderground v.1.15,2013-12-14 18:07:00,
2013-12-14 11:12:00,34.9,17.7,30.48,NNW,344,10.0,11.0,49,0.00,,,0.00,480,Wunderground v.1.15,2013-12-14 18:12:00,
2013-12-14 11:17:00,35.3,18.0,30.49,NNW,336,9.0,11.0,49,0.00,,,0.00,483,Wunderground v.1.15,2013-12-14 18:17:00,
2013-12-14 11:22:00,35.7,17.9,30.49,North,360,7.0,8.0,48,0.00,,,0.00,490,Wunderground v.1.15,2013-12-14 18:22:00,
2013-12-14 11:27:00,35.9,18.1,30.49,NNW,342,7.0,10.0,48,0.00,,,0.00,492,Wunderground v.1.15,2013-12-14 18:27:00,
2013-12-14 11:32:00,35.9,18.1,30.48,NNW,332,8.0,10.0,48,0.00,,,0.00,497,Wunderground v.1.15,2013-12-14 18:32:00,
2013-12-14 11:38:00,36.0,17.7,30.48,NW,321,8.0,10.0,47,0.00,,,0.00,501,Wunderground v.1.15,2013-12-14 18:38:00,
2013-12-14 11:43:00,36.3,18.0,30.48,NNW,328,8.0,11.0,47,0.00,,,0.00,504,Wunderground v.1.15,2013-12-14 18:43:00,
2013-12-14 11:48:00,36.4,18.1,30.48,North,355,8.0,11.0,47,0.00,,,0.00,506,Wunderground v.1.15,2013-12-14 18:48:00,
2013-12-14 11:54:00,36.5,17.7,30.48,NNW,338,8.0,11.0,46,0.00,,,0.00,508,Wunderground v.1.15,2013-12-14 18:54:00,
2013-12-14 11:59:00,36.9,18.0,30.48,NNW,340,7.0,11.0,46,0.00,,,0.00,508,Wunderground v.1.15,2013-12-14 18:59:00,
2013-12-14 12:04:00,36.9,18.0,30.48,North,10,7.0,10.0,46,0.00,,,0.00,512,Wunderground v.1.15,2013-12-14 19:04:00,
2013-12-14 12:10:00,37.1,17.7,30.48,NE,50,7.0,7.0,45,0.00,,,0.00,513,Wunderground v.1.15,2013-12-14 19:10:00,
2013-12-14 12:16:00,37.5,18.1,30.47,NW,317,6.0,10.0,45,0.00,,,0.00,513,Wunderground v.1.15,2013-12-14 19:16:00,
2013-12-14 12:21:00,37.3,17.9,30.47,NNW,332,7.0,14.0,45,0.00,,,0.00,512,Wunderground v.1.15,2013-12-14 19:21:00,
2013-12-14 12:26:00,36.9,18.0,30.47,NNW,327,9.0,14.0,46,0.00,,,0.00,512,Wunderground v.1.15,2013-12-14 19:26:00,
2013-12-14 12:31:00,37.0,18.1,30.47,NNW,338,11.0,12.0,46,0.00,,,0.00,510,Wunderground v.1.15,2013-12-14 19:31:00,
2013-12-14 12:37:00,36.8,17.9,30.47,NNW,333,10.0,15.0,46,0.00,,,0.00,510,Wunderground v.1.15,2013-12-14 19:37:00,
2013-12-14 12:42:00,36.9,18.0,30.46,ENE,64,8.0,9.0,46,0.00,,,0.00,506,Wunderground v.1.15,2013-12-14 19:42:00,
2013-12-14 12:47:00,37.4,18.0,30.47,North,11,6.0,9.0,45,0.00,,,0.00,506,Wunderground v.1.15,2013-12-14 19:47:00,
2013-12-14 12:53:00,37.3,18.4,30.46,NNW,338,6.0,10.0,46,0.00,,,0.00,501,Wunderground v.1.15,2013-12-14 19:53:00,
2013-12-14 12:58:00,37.5,18.1,30.46,NNW,339,7.0,10.0,45,0.00,,,0.00,499,Wunderground v.1.15,2013-12-14 19:58:00,
2013-12-14 13:03:00,37.6,17.6,30.46,NNW,346,6.0,10.0,44,0.00,,,0.00,494,Wunderground v.1.15,2013-12-14 20:03:00,
2013-12-14 13:09:00,38.0,18.5,30.46,North,351,6.0,10.0,45,0.00,,,0.00,490,Wunderground v.1.15,2013-12-14 20:09:00,
2013-12-14 13:14:00,37.8,17.8,30.45,NW,323,7.0,12.0,44,0.00,,,0.00,487,Wunderground v.1.15,2013-12-14 20:14:00,
2013-12-14 13:19:00,37.7,17.7,30.45,North,360,9.0,12.0,44,0.00,,,0.00,482,Wunderground v.1.15,2013-12-14 20:19:00,
2013-12-14 13:24:00,37.6,18.2,30.45,NNW,336,9.0,12.0,45,0.00,,,0.00,476,Wunderground v.1.15,2013-12-14 20:24:00,
2013-12-14 13:30:00,37.7,18.2,30.46,NNW,346,9.0,10.0,45,0.00,,,0.00,469,Wunderground v.1.15,2013-12-14 20:30:00,
2013-12-14 13:35:00,37.0,16.5,30.46,NE,46,9.0,13.0,43,0.00,,,0.00,462,Wunderground v.1.15,2013-12-14 20:35:00,
2013-12-14 13:40:00,36.8,17.4,30.45,NE,51,9.0,14.0,45,0.00,,,0.00,455,Wunderground v.1.15,2013-12-14 20:40:00,
2013-12-14 13:45:00,36.9,17.5,30.45,NNW,337,8.0,14.0,45,0.00,,,0.00,450,Wunderground v.1.15,2013-12-14 20:45:00,
2013-12-14 13:51:00,37.5,17.5,30.45,North,350,6.0,6.0,44,0.00,,,0.00,441,Wunderground v.1.15,2013-12-14 20:51:00,
2013-12-14 13:56:00,37.7,17.7,30.44,North,355,6.0,9.0,44,0.00,,,0.00,436,Wunderground v.1.15,2013-12-14 20:56:00,
2013-12-14 14:01:00,37.9,17.4,30.45,NNE,26,5.0,6.0,43,0.00,,,0.00,427,Wunderground v.1.15,2013-12-14 21:01:00,
2013-12-14 14:06:00,38.4,18.4,30.45,NE,55,5.0,13.0,44,0.00,,,0.00,418,Wunderground v.1.15,2013-12-14 21:06:00,
2013-12-14 14:11:00,38.4,17.8,30.45,NNW,331,6.0,9.0,43,0.00,,,0.00,410,Wunderground v.1.15,2013-12-14 21:11:00,
2013-12-14 14:16:00,38.0,17.5,30.45,North,355,7.0,9.0,43,0.00,,,0.00,401,Wunderground v.1.15,2013-12-14 21:16:00,
2013-12-14 14:22:00,37.7,16.6,30.45,NNW,338,7.0,14.0,42,0.00,,,0.00,390,Wunderground v.1.15,2013-12-14 21:22:00,
2013-12-14 14:27:00,37.6,17.1,30.45,North,355,7.0,14.0,43,0.00,,,0.00,380,Wunderground v.1.15,2013-12-14 21:27:00,
2013-12-14 14:32:00,37.7,17.2,30.45,NNW,334,7.0,14.0,43,0.00,,,0.00,369,Wunderground v.1.15,2013-12-14 21:32:00,
2013-12-14 14:38:00,37.7,17.2,30.46,NE,34,7.0,14.0,43,0.00,,,0.00,352,Wunderground v.1.15,2013-12-14 21:38:00,
2013-12-14 14:43:00,37.7,17.7,30.46,NE,38,6.0,7.0,44,0.00,,,0.00,348,Wunderground v.1.15,2013-12-14 21:43:00,
2013-12-14 14:48:00,37.8,17.3,30.45,NNE,16,6.0,10.0,43,0.00,,,0.00,338,Wunderground v.1.15,2013-12-14 21:48:00,
2013-12-14 14:54:00,37.7,17.7,30.45,NNW,339,6.0,10.0,44,0.00,,,0.00,323,Wunderground v.1.15,2013-12-14 21:54:00,
2013-12-14 14:59:00,38.2,18.2,30.46,NNE,18,5.0,10.0,44,0.00,,,0.00,311,Wunderground v.1.15,2013-12-14 21:59:00,
2013-12-14 15:05:00,38.5,17.4,30.46,NNE,33,5.0,6.0,42,0.00,,,0.00,297,Wunderground v.1.15,2013-12-14 22:05:00,
2013-12-14 15:10:00,38.5,17.9,30.46,NW,314,6.0,9.0,43,0.00,,,0.00,285,Wunderground v.1.15,2013-12-14 22:10:00,
2013-12-14 15:15:00,38.2,17.1,30.46,North,360,8.0,11.0,42,0.00,,,0.00,272,Wunderground v.1.15,2013-12-14 22:15:00,
2013-12-14 15:21:00,38.0,16.9,30.46,NW,317,9.0,9.0,42,0.00,,,0.00,258,Wunderground v.1.15,2013-12-14 22:21:00,
2013-12-14 15:26:00,38.1,17.0,30.46,NW,324,7.0,10.0,42,0.00,,,0.00,246,Wunderground v.1.15,2013-12-14 22:26:00,
2013-12-14 15:31:00,38.3,16.1,30.46,NNW,342,5.0,8.0,40,0.00,,,0.00,232,Wunderground v.1.15,2013-12-14 22:31:00,
2013-12-14 15:36:00,38.1,16.4,30.46,NNW,331,6.0,12.0,41,0.00,,,0.00,218,Wunderground v.1.15,2013-12-14 22:36:00,
2013-12-14 15:41:00,38.0,16.9,30.46,NNW,331,8.0,9.0,42,0.00,,,0.00,206,Wunderground v.1.15,2013-12-14 22:41:00,
2013-12-14 15:46:00,37.9,16.3,30.46,NNW,329,8.0,10.0,41,0.00,,,0.00,190,Wunderground v.1.15,2013-12-14 22:46:00,
2013-12-14 15:52:00,37.8,16.7,30.46,North,355,7.0,12.0,42,0.00,,,0.00,169,Wunderground v.1.15,2013-12-14 22:52:00,
2013-12-14 15:57:00,37.6,16.5,30.46,North,360,7.0,12.0,42,0.00,,,0.00,151,Wunderground v.1.15,2013-12-14 22:57:00,
2013-12-14 16:02:00,37.6,16.0,30.47,NNW,330,6.0,6.0,41,0.00,,,0.00,135,Wunderground v.1.15,2013-12-14 23:02:00,
2013-12-14 16:08:00,37.5,16.5,30.47,NNE,13,6.0,8.0,42,0.00,,,0.00,114,Wunderground v.1.15,2013-12-14 23:08:00,
2013-12-14 16:13:00,37.4,16.4,30.47,NW,312,5.0,9.0,42,0.00,,,0.00,98,Wunderground v.1.15,2013-12-14 23:13:00,
2013-12-14 16:18:00,37.2,16.2,30.47,North,5,6.0,10.0,42,0.00,,,0.00,81,Wunderground v.1.15,2013-12-14 23:18:00,
2013-12-14 16:24:00,37.3,16.3,30.47,NNW,346,4.0,6.0,42,0.00,,,0.00,63,Wunderground v.1.15,2013-12-14 23:24:00,
2013-12-14 16:29:00,37.1,16.1,30.48,North,351,4.0,9.0,42,0.00,,,0.00,49,Wunderground v.1.15,2013-12-14 23:29:00,
2013-12-14 16:35:00,37.0,16.0,30.48,East,86,4.0,5.0,42,0.00,,,0.00,37,Wunderground v.1.15,2013-12-14 23:35:00,
2013-12-14 16:40:00,36.7,15.7,30.49,NNW,331,5.0,5.0,42,0.00,,,0.00,26,Wunderground v.1.15,2013-12-14 23:40:00,
2013-12-14 16:45:00,36.4,16.0,30.49,NNW,348,5.0,8.0,43,0.00,,,0.00,18,Wunderground v.1.15,2013-12-14 23:45:00,
2013-12-14 16:50:00,36.2,15.8,30.48,NNW,340,5.0,8.0,43,0.00,,,0.00,14,Wunderground v.1.15,2013-12-14 23:50:00,
2013-12-14 16:55:00,36.0,15.6,30.48,North,349,4.0,8.0,43,0.00,,,0.00,12,Wunderground v.1.15,2013-12-14 23:55:00,
2013-12-14 17:00:00,35.6,15.3,30.48,North,360,3.0,3.0,43,0.00,,,0.00,11,Wunderground v.1.15,2013-12-15 00:00:00,
2013-12-14 17:05:00,35.0,14.7,30.48,North,360,1.0,3.0,43,0.00,,,0.00,7,Wunderground v.1.15,2013-12-15 00:05:00,
2013-12-14 17:10:00,34.5,14.8,30.48,NNW,336,1.0,2.0,44,0.00,,,0.00,5,Wunderground v.1.15,2013-12-15 00:10:00,
2013-12-14 17:15:00,34.2,15.0,30.49,NE,51,1.0,2.0,45,0.00,,,0.00,5,Wunderground v.1.15,2013-12-15 00:15:00,
2013-12-14 17:21:00,33.7,15.1,30.49,North,5,2.0,5.0,46,0.00,,,0.00,0,Wunderground v.1.15,2013-12-15 00:21:00,
2013-12-14 17:26:00,33.3,15.2,30.49,NNW,339,2.0,5.0,47,0.00,,,0.00,0,Wunderground v.1.15,2013-12-15 00:26:00,
2013-12-14 17:31:00,32.8,15.2,30.49,NNW,329,2.0,2.0,48,0.00,,,0.00,0,Wunderground v.1.15,2013-12-15 00:31:00,
2013-12-14 17:36:00,32.5,15.0,30.49,NNW,333,2.0,6.0,48,0.00,,,0.00,0,Wunderground v.1.15,2013-12-15 00:36:00,
2013-12-14 17:41:00,32.3,15.3,30.49,NNW,345,2.0,2.0,49,0.00,,,0.00,0,Wunderground v.1.15,2013-12-15 00:41:00,
2013-12-14 17:46:00,32.0,15.4,30.50,NNW,345,1.0,2.0,50,0.00,,,0.00,0,Wunderground v.1.15,2013-12-15 00:46:00,
2013-12-14 17:51:00,31.7,15.2,30.50,WNW,302,1.0,2.0,50,0.00,,,0.00,0,Wunderground v.1.15,2013-12-15 00:51:00,
2013-12-14 17:56:00,31.7,15.2,30.50,NNW,327,1.0,3.0,50,0.00,,,0.00,0,Wunderground v.1.15,2013-12-15 00:56:00,
2013-12-14 18:01:00,31.6,15.5,30.50,NNE,31,3.0,3.0,51,0.00,,,0.00,0,Wunderground v.1.15,2013-12-15 01:01:00,
2013-12-14 18:07:00,31.2,16.0,30.50,NNW,333,3.0,6.0,53,0.00,,,0.00,0,Wunderground v.1.15,2013-12-15 01:07:00,
2013-12-14 18:12:00,30.8,15.7,30.50,NW,320,5.0,6.0,53,0.00,,,0.00,0,Wunderground v.1.15,2013-12-15 01:12:00,
2013-12-14 18:17:00,30.6,15.9,30.50,North,350,6.0,6.0,54,0.00,,,0.00,0,Wunderground v.1.15,2013-12-15 01:17:00,
2013-12-14 18:22:00,30.4,15.7,30.50,NNE,18,5.0,5.0,54,0.00,,,0.00,0,Wunderground v.1.15,2013-12-15 01:22:00,
2013-12-14 18:27:00,30.3,16.0,30.50,North,355,4.0,5.0,55,0.00,,,0.00,0,Wunderground v.1.15,2013-12-15 01:27:00,
2013-12-14 18:32:00,30.2,15.5,30.51,NNW,336,2.0,3.0,54,0.00,,,0.00,0,Wunderground v.1.15,2013-12-15 01:32:00,
2013-12-14 18:37:00,30.1,15.4,30.51,ENE,66,2.0,3.0,54,0.00,,,0.00,0,Wunderground v.1.15,2013-12-15 01:37:00,
2013-12-14 18:42:00,29.9,15.7,30.51,East,96,2.0,2.0,55,0.00,,,0.00,0,Wunderground v.1.15,2013-12-15 01:42:00,
2013-12-14 18:47:00,29.9,15.7,30.51,NNW,333,2.0,2.0,55,0.00,,,0.00,0,Wunderground v.1.15,2013-12-15 01:47:00,
2013-12-14 18:53:00,30.1,15.9,30.50,South,178,1.0,2.0,55,0.00,,,0.00,0,Wunderground v.1.15,2013-12-15 01:53:00,
2013-12-14 18:58:00,30.3,15.6,30.50,WNW,285,1.0,3.0,54,0.00,,,0.00,0,Wunderground v.1.15,2013-12-15 01:58:00,
2013-12-14 19:04:00,30.5,15.4,30.51,West,281,1.0,2.0,53,0.00,,,0.00,0,Wunderground v.1.15,2013-12-15 02:04:00,
2013-12-14 19:09:00,30.2,15.5,30.51,NNE,23,1.0,4.0,54,0.00,,,0.00,0,Wunderground v.1.15,2013-12-15 02:09:00,
2013-12-14 19:15:00,30.4,15.7,30.51,NNE,18,2.0,3.0,54,0.00,,,0.00,0,Wunderground v.1.15,2013-12-15 02:15:00,
2013-12-14 19:20:00,30.3,16.0,30.51,NNW,332,2.0,2.0,55,0.00,,,0.00,0,Wunderground v.1.15,2013-12-15 02:20:00,
2013-12-14 19:25:00,29.9,15.7,30.52,NNE,15,2.0,3.0,55,0.00,,,0.00,0,Wunderground v.1.15,2013-12-15 02:25:00,
2013-12-14 19:30:00,29.6,15.4,30.52,NNE,15,1.0,1.0,55,0.00,,,0.00,0,Wunderground v.1.15,2013-12-15 02:30:00,
2013-12-14 19:36:00,29.1,15.7,30.52,SW,236,2.0,3.0,57,0.00,,,0.00,0,Wunderground v.1.15,2013-12-15 02:36:00,
2013-12-14 19:41:00,30.1,15.9,30.52,SE,142,3.0,3.0,55,0.00,,,0.00,0,Wunderground v.1.15,2013-12-15 02:41:00,
2013-12-14 19:46:00,30.4,15.7,30.52,ENE,66,3.0,3.0,54,0.00,,,0.00,0,Wunderground v.1.15,2013-12-15 02:46:00,
2013-12-14 19:51:00,30.2,15.5,30.53,NE,55,1.0,3.0,54,0.00,,,0.00,0,Wunderground v.1.15,2013-12-15 02:51:00,
2013-12-14 19:56:00,30.1,15.4,30.53,NNE,17,2.0,3.0,54,0.00,,,0.00,0,Wunderground v.1.15,2013-12-15 02:56:00,
2013-12-14 20:01:00,30.1,15.4,30.53,ENE,60,2.0,2.0,54,0.00,,,0.00,0,Wunderground v.1.15,2013-12-15 03:01:00,
2013-12-14 20:06:00,30.3,15.6,30.53,NE,43,3.0,4.0,54,0.00,,,0.00,0,Wunderground v.1.15,2013-12-15 03:06:00,
2013-12-14 20:12:00,30.7,16.0,30.53,NNW,341,4.0,8.0,54,0.00,,,0.00,0,Wunderground v.1.15,2013-12-15 03:12:00,
2013-12-14 20:17:00,31.0,15.8,30.53,North,349,6.0,10.0,53,0.00,,,0.00,0,Wunderground v.1.15,2013-12-15 03:17:00,
2013-12-14 20:23:00,31.1,15.9,30.53,NNW,348,8.0,12.0,53,0.00,,,0.00,0,Wunderground v.1.15,2013-12-15 03:23:00,
2013-12-14 20:28:00,30.9,16.2,30.53,NW,319,9.0,12.0,54,0.00,,,0.00,0,Wunderground v.1.15,2013-12-15 03:28:00,
2013-12-14 20:34:00,30.8,16.1,30.54,NNW,334,9.0,10.0,54,0.00,,,0.00,0,Wunderground v.1.15,2013-12-15 03:34:00,
2013-12-14 20:39:00,30.9,16.2,30.54,NNW,342,8.0,11.0,54,0.00,,,0.00,0,Wunderground v.1.15,2013-12-15 03:39:00,
2013-12-14 20:44:00,31.0,15.8,30.54,NW,325,9.0,11.0,53,0.00,,,0.00,0,Wunderground v.1.15,2013-12-15 03:44:00,
2013-12-14 20:49:00,31.2,16.0,30.55,North,350,10.0,13.0,53,0.00,,,0.00,0,Wunderground v.1.15,2013-12-15 03:49:00,
2013-12-14 20:54:00,31.3,16.1,30.54,NNW,342,10.0,12.0,53,0.00,,,0.00,0,Wunderground v.1.15,2013-12-15 03:54:00,
2013-12-14 21:00:00,31.2,15.6,30.54,NNE,28,9.0,9.0,52,0.00,,,0.00,0,Wunderground v.1.15,2013-12-15 04:00:00,
2013-12-14 21:06:00,30.7,15.6,30.54,NW,319,6.0,9.0,53,0.00,,,0.00,0,Wunderground v.1.15,2013-12-15 04:06:00,
2013-12-14 21:11:00,30.0,15.3,30.54,NW,321,3.0,3.0,54,0.00,,,0.00,0,Wunderground v.1.15,2013-12-15 04:11:00,
2013-12-14 21:16:00,29.5,15.3,30.54,NNW,329,1.0,3.0,55,0.00,,,0.00,0,Wunderground v.1.15,2013-12-15 04:16:00,
2013-12-14 21:21:00,29.3,15.1,30.54,NNW,342,2.0,2.0,55,0.00,,,0.00,0,Wunderground v.1.15,2013-12-15 04:21:00,
2013-12-14 21:26:00,29.0,14.8,30.54,NNW,342,2.0,2.0,55,0.00,,,0.00,0,Wunderground v.1.15,2013-12-15 04:26:00,
2013-12-14 21:31:00,28.8,14.6,30.54,NNW,344,1.0,1.0,55,0.00,,,0.00,0,Wunderground v.1.15,2013-12-15 04:31:00,
2013-12-14 21:36:00,28.7,14.6,30.54,NNW,344,1.0,1.0,55,0.00,,,0.00,0,Wunderground v.1.15,2013-12-15 04:36:00,
2013-12-14 21:41:00,29.0,14.8,30.54,NW,324,1.0,2.0,55,0.00,,,0.00,0,Wunderground v.1.15,2013-12-15 04:41:00,
2013-12-14 21:46:00,29.4,14.8,30.55,NW,320,2.0,3.0,54,0.00,,,0.00,0,Wunderground v.1.15,2013-12-15 04:46:00,
2013-12-14 21:52:00,29.6,15.0,30.55,NW,320,1.0,2.0,54,0.00,,,0.00,0,Wunderground v.1.15,2013-12-15 04:52:00,
2013-12-14 21:57:00,29.4,14.4,30.55,NW,320,0.0,2.0,53,0.00,,,0.00,0,Wunderground v.1.15,2013-12-15 04:57:00,
2013-12-14 22:01:00,29.5,14.5,30.55,NW,320,0.0,2.0,53,0.00,,,0.00,0,Wunderground v.1.15,2013-12-15 05:01:00,
2013-12-14 22:02:00,29.5,14.5,30.55,NW,320,0.0,2.0,53,0.00,,,0.00,0,Wunderground v.1.15,2013-12-15 05:02:00,
2013-12-14 22:04:00,29.7,14.2,30.55,NW,320,1.0,2.0,52,0.00,,,0.00,0,Wunderground v.1.15,2013-12-15 05:04:00,
2013-12-14 22:05:00,29.7,14.2,30.55,NW,320,1.0,2.0,52,0.00,,,0.00,0,Wunderground v.1.15,2013-12-15 05:05:00,
2013-12-14 22:08:00,29.8,14.3,30.55,NW,320,1.0,2.0,52,0.00,,,0.00,0,Wunderground v.1.15,2013-12-15 05:08:00,
2013-12-14 22:14:00,29.7,14.2,30.55,NW,320,1.0,2.0,52,0.00,,,0.00,0,Wunderground v.1.15,2013-12-15 05:14:00,
2013-12-14 22:19:00,29.0,14.0,30.55,West,281,2.0,6.0,53,0.00,,,0.00,0,Wunderground v.1.15,2013-12-15 05:19:00,
2013-12-14 22:24:00,28.0,13.9,30.55,WNW,290,3.0,4.0,55,0.00,,,0.00,0,Wunderground v.1.15,2013-12-15 05:24:00,
2013-12-14 22:29:00,27.1,13.5,30.55,WNW,290,3.0,4.0,56,0.00,,,0.00,0,Wunderground v.1.15,2013-12-15 05:29:00,
2013-12-14 22:35:00,26.6,13.8,30.55,WNW,290,1.0,2.0,58,0.00,,,0.00,0,Wunderground v.1.15,2013-12-15 05:35:00,
2013-12-14 22:40:00,25.6,13.6,30.55,WSW,250,2.0,4.0,60,0.00,,,0.00,0,Wunderground v.1.15,2013-12-15 05:40:00,
2013-12-14 22:45:00,24.5,13.3,30.55,WSW,250,3.0,4.0,62,0.00,,,0.00,0,Wunderground v.1.15,2013-12-15 05:45:00,
2013-12-14 22:50:00,23.0,13.0,30.56,SW,230,3.0,3.0,65,0.00,,,0.00,0,Wunderground v.1.15,2013-12-15 05:50:00,
2013-12-14 22:55:00,22.0,13.0,30.56,SW,230,2.0,3.0,68,0.00,,,0.00,0,Wunderground v.1.15,2013-12-15 05:55:00,
2013-12-14 23:00:00,21.7,13.1,30.56,SW,230,1.0,1.0,69,0.00,,,0.00,0,Wunderground v.1.15,2013-12-15 06:00:00,
2013-12-14 23:06:00,21.1,12.5,30.56,West,260,1.0,3.0,69,0.00,,,0.00,0,Wunderground v.1.15,2013-12-15 06:06:00,
2013-12-14 23:11:00,21.4,13.1,30.56,ESE,120,2.0,3.0,70,0.00,,,0.00,0,Wunderground v.1.15,2013-12-15 06:11:00,
2013-12-14 23:16:00,21.5,13.2,30.56,ESE,116,3.0,3.0,70,0.00,,,0.00,0,Wunderground v.1.15,2013-12-15 06:16:00,
2013-12-14 23:22:00,21.6,13.6,30.56,ESE,116,1.0,2.0,71,0.00,,,0.00,0,Wunderground v.1.15,2013-12-15 06:22:00,
2013-12-14 23:27:00,21.5,13.2,30.56,ESE,116,0.0,2.0,70,0.00,,,0.00,0,Wunderground v.1.15,2013-12-15 06:27:00,
2013-12-14 23:33:00,20.9,13.0,30.56,WSW,239,1.0,5.0,71,0.00,,,0.00,0,Wunderground v.1.15,2013-12-15 06:33:00,
2013-12-14 23:39:00,20.1,12.5,30.56,SW,229,2.0,5.0,72,0.00,,,0.00,0,Wunderground v.1.15,2013-12-15 06:39:00,
2013-12-14 23:44:00,19.7,12.4,30.56,SW,232,3.0,4.0,73,0.00,,,0.00,0,Wunderground v.1.15,2013-12-15 06:44:00,
2013-12-14 23:50:00,19.3,12.4,30.56,SW,230,3.0,3.0,74,0.00,,,0.00,0,Wunderground v.1.15,2013-12-15 06:50:00,
2013-12-14 23:55:00,19.0,12.4,30.56,SW,234,1.0,3.0,75,0.00,,,0.00,0,Wunderground v.1.15,2013-12-15 06:55:00,